Time;durP1;ratioP1;P1;durP2;ratioP2;P2;SDS_P1;SDS_P2;PMS_P1;PMS_P2;Temp;Humidity;BMP_temperature;BMP_pressure;BME280_temperature;BME280_humidity;BME280_pressure;Samples;Min_cycle;Max_cycle;Signal;HPM_P1;HPM_P2
2023/06/16 00:01:59;;;;;;;7.03;3.53;;;18.30;99.90;;;;;;5036491;28;20090;-69
2023/06/16 00:04:27;;;;;;;9.27;3.22;;;18.50;99.90;;;;;;5037406;28;20022;-69
2023/06/16 00:06:54;;;;;;;8.90;3.63;;;18.50;99.90;;;;;;5036718;28;20071;-69
2023/06/16 00:09:25;;;;;;;9.93;3.47;;;18.50;99.90;;;;;;5036404;28;20033;-69
2023/06/16 00:11:52;;;;;;;5.57;3.47;;;18.20;99.90;;;;;;5037025;28;20037;-69
2023/06/16 00:14:17;;;;;;;6.75;2.78;;;17.90;99.90;;;;;;5036964;28;20036;-69
2023/06/16 00:16:43;;;;;;;4.85;3.50;;;18.00;99.90;;;;;;5036165;28;20025;-69
2023/06/16 00:19:10;;;;;;;7.53;3.40;;;18.10;99.90;;;;;;5036432;28;20128;-69
2023/06/16 00:21:38;;;;;;;6.00;3.10;;;18.30;99.90;;;;;;5036466;28;20053;-69
2023/06/16 00:24:08;;;;;;;4.75;3.53;;;18.20;99.90;;;;;;5036553;28;20045;-69
2023/06/16 00:26:34;;;;;;;10.75;3.80;;;18.00;99.90;;;;;;5036756;28;20048;-69
2023/06/16 00:29:01;;;;;;;7.95;3.50;;;18.00;99.90;;;;;;5036085;28;20026;-69
2023/06/16 00:31:27;;;;;;;5.85;3.50;;;18.00;99.90;;;;;;5036524;28;20094;-69
2023/06/16 00:33:53;;;;;;;4.80;3.40;;;18.00;99.90;;;;;;5036308;28;20116;-69
2023/06/16 00:36:19;;;;;;;7.07;3.33;;;18.10;99.90;;;;;;5036172;28;20029;-69
2023/06/16 00:38:45;;;;;;;5.63;3.78;;;18.10;99.90;;;;;;5036280;28;20029;-69
2023/06/16 00:41:11;;;;;;;7.15;3.83;;;18.00;99.90;;;;;;5036307;28;20077;-70
2023/06/16 00:43:36;;;;;;;6.82;3.28;;;18.00;99.90;;;;;;5035791;28;20108;-69
2023/06/16 00:46:02;;;;;;;5.88;3.60;;;17.90;99.90;;;;;;5035873;28;20095;-69
2023/06/16 00:48:27;;;;;;;5.47;3.38;;;18.10;99.90;;;;;;5036224;28;20025;-69
2023/06/16 00:50:55;;;;;;;9.48;4.28;;;18.10;99.90;;;;;;5036178;28;20017;-69
2023/06/16 00:53:21;;;;;;;7.82;3.70;;;18.30;99.90;;;;;;5036220;28;20048;-69
2023/06/16 00:55:47;;;;;;;6.70;3.70;;;18.20;99.90;;;;;;5036053;28;20053;-70
2023/06/16 00:58:14;;;;;;;5.55;3.30;;;18.20;99.90;;;;;;5035812;28;20021;-70
2023/06/16 01:00:39;;;;;;;7.93;4.25;;;18.20;99.90;;;;;;5035702;28;20022;-70
2023/06/16 01:03:08;;;;;;;8.48;3.78;;;18.20;99.90;;;;;;5035978;28;20032;-70
2023/06/16 01:05:34;;;;;;;6.03;3.88;;;18.20;99.90;;;;;;5035936;28;20026;-70
2023/06/16 01:08:21;;;;;;;6.88;3.58;;;18.40;99.90;;;;;;5035858;28;20025;-70
2023/06/16 01:10:46;;;;;;;6.57;3.28;;;18.50;99.90;;;;;;5038923;28;20060;-70
2023/06/16 01:13:26;;;;;;;8.98;3.47;;;18.60;99.90;;;;;;5040215;28;20021;-69
2023/06/16 01:15:53;;;;;;;8.27;3.90;;;18.50;99.90;;;;;;5039759;28;20026;-69
2023/06/16 01:18:25;;;;;;;7.53;4.00;;;18.40;99.90;;;;;;5039729;28;20079;-69
2023/06/16 01:21:25;;;;;;;9.48;3.90;;;18.30;99.90;;;;;;5039701;28;20025;-69
2023/06/16 01:24:23;;;;;;;7.10;3.45;;;18.20;99.90;;;;;;5011739;28;20120;-69
2023/06/16 01:26:53;;;;;;;6.68;3.17;;;18.10;99.90;;;;;;5039848;28;20103;-69
2023/06/16 01:29:24;;;;;;;9.60;3.72;;;18.10;99.90;;;;;;5039127;28;20025;-70
2023/06/16 01:31:54;;;;;;;6.40;3.50;;;18.00;99.90;;;;;;5040415;28;20042;-70
2023/06/16 01:34:20;;;;;;;9.45;2.97;;;18.10;99.90;;;;;;5039234;28;20120;-70
2023/06/16 01:36:46;;;;;;;6.28;3.40;;;18.10;99.90;;;;;;5039204;28;20021;-69
2023/06/16 01:39:15;;;;;;;10.57;3.60;;;18.10;99.90;;;;;;5038993;28;20021;-70
2023/06/16 01:41:41;;;;;;;5.20;3.25;;;18.10;99.90;;;;;;5039412;28;20029;-69
2023/06/16 01:44:08;;;;;;;6.35;3.50;;;18.10;99.90;;;;;;5039160;28;20021;-69
2023/06/16 01:46:35;;;;;;;6.65;3.88;;;18.10;99.90;;;;;;5039723;28;20072;-69
2023/06/16 01:49:01;;;;;;;6.53;3.53;;;18.10;99.90;;;;;;5039713;28;20029;-69
2023/06/16 01:51:27;;;;;;;5.95;3.83;;;18.10;99.90;;;;;;5039165;28;20032;-69
2023/06/16 01:53:53;;;;;;;6.18;3.65;;;18.10;99.90;;;;;;5039310;28;20033;-69
2023/06/16 01:56:19;;;;;;;6.55;3.40;;;18.10;99.90;;;;;;5038898;28;20033;-69
2023/06/16 01:58:45;;;;;;;5.50;3.20;;;18.10;99.90;;;;;;5039228;28;20045;-69
2023/06/16 02:01:20;;;;;;;6.82;3.47;;;18.10;99.90;;;;;;5039073;28;20022;-69
2023/06/16 02:04:05;;;;;;;5.57;3.60;;;18.20;99.90;;;;;;5039294;28;20027;-69
2023/06/16 02:06:46;;;;;;;6.07;3.75;;;18.30;99.90;;;;;;5038659;28;20083;-69
2023/06/16 02:09:15;;;;;;;14.10;3.38;;;18.40;99.90;;;;;;5039300;28;20076;-69
2023/06/16 02:11:42;;;;;;;9.95;4.03;;;18.40;99.90;;;;;;5039304;28;20089;-69
2023/06/16 02:14:08;;;;;;;8.70;3.90;;;18.40;99.90;;;;;;5038761;28;20029;-69
2023/06/16 02:16:39;;;;;;;7.47;3.85;;;18.30;99.90;;;;;;5038709;28;20061;-69
2023/06/16 02:19:05;;;;;;;;;;;18.20;99.90;;;;;;5038951;28;20022;-69
2023/06/16 02:21:30;;;;;;;9.50;3.63;;;18.10;99.90;;;;;;5037537;28;19905;-69
2023/06/16 02:23:56;;;;;;;9.18;3.50;;;18.20;99.90;;;;;;5039092;28;20025;-69
2023/06/16 02:26:22;;;;;;;6.03;3.30;;;18.20;99.90;;;;;;5038385;28;20025;-69
2023/06/16 02:28:48;;;;;;;5.55;3.55;;;18.10;99.90;;;;;;5039278;28;20033;-69
2023/06/16 02:31:17;;;;;;;7.22;3.30;;;18.10;99.90;;;;;;5038264;28;20037;-69
2023/06/16 02:33:44;;;;;;;6.50;3.45;;;17.90;99.90;;;;;;5038467;28;20052;-69
2023/06/16 02:36:09;;;;;;;9.48;3.45;;;17.90;99.90;;;;;;5038779;28;20093;-68
2023/06/16 02:38:35;;;;;;;6.95;3.67;;;17.90;99.90;;;;;;5038906;28;20167;-68
2023/06/16 02:41:01;;;;;;;8.45;3.85;;;17.90;99.90;;;;;;5038377;28;20029;-68
2023/06/16 02:43:26;;;;;;;6.75;3.60;;;17.90;99.90;;;;;;5037910;28;20022;-69
2023/06/16 02:45:52;;;;;;;5.97;3.88;;;17.90;99.90;;;;;;5037852;28;20105;-68
2023/06/16 02:48:17;;;;;;;5.80;3.72;;;17.90;99.90;;;;;;5038376;28;20021;-68
2023/06/16 02:50:43;;;;;;;7.05;3.95;;;17.90;99.90;;;;;;5037755;28;20022;-69
2023/06/16 02:53:08;;;;;;;17.10;4.30;;;17.90;99.90;;;;;;5037880;28;20084;-68
2023/06/16 02:55:35;;;;;;;5.82;3.95;;;17.70;99.90;;;;;;5037815;28;20029;-69
2023/06/16 02:58:01;;;;;;;7.65;3.83;;;17.50;99.90;;;;;;5037805;28;20021;-69
2023/06/16 03:00:27;;;;;;;7.70;4.20;;;17.50;99.90;;;;;;5037755;28;20026;-69
2023/06/16 03:02:53;;;;;;;11.38;4.32;;;17.40;99.90;;;;;;5037604;28;20051;-69
2023/06/16 03:05:18;;;;;;;7.20;3.80;;;17.50;99.90;;;;;;5038422;28;20017;-69
2023/06/16 03:07:44;;;;;;;8.27;4.25;;;17.60;99.90;;;;;;5037465;28;20075;-69
2023/06/16 03:10:11;;;;;;;6.80;4.07;;;17.70;99.90;;;;;;5037349;28;20030;-68
2023/06/16 03:12:37;;;;;;;6.78;4.07;;;17.70;99.90;;;;;;5037833;28;20021;-68
2023/06/16 03:15:02;;;;;;;11.00;3.50;;;17.70;99.90;;;;;;5037965;28;20026;-68
2023/06/16 03:17:28;;;;;;;10.18;4.05;;;17.70;99.90;;;;;;5037419;28;20028;-69
2023/06/16 03:19:53;;;;;;;6.75;4.05;;;17.70;99.90;;;;;;5037471;28;20025;-68
2023/06/16 03:22:19;;;;;;;9.00;4.95;;;17.50;99.90;;;;;;5037471;28;20026;-69
2023/06/16 03:24:44;;;;;;;10.60;4.65;;;17.60;99.90;;;;;;5037409;28;20025;-69
2023/06/16 03:27:10;;;;;;;6.63;3.67;;;17.50;99.90;;;;;;5038022;28;20064;-69
2023/06/16 03:29:40;;;;;;;11.25;4.35;;;17.10;99.90;;;;;;5037059;28;20029;-69
2023/06/16 03:32:06;;;;;;;6.30;4.43;;;16.80;99.90;;;;;;5037608;28;20030;-69
2023/06/16 03:34:31;;;;;;;9.60;4.80;;;16.80;99.90;;;;;;5035976;28;20025;-69
2023/06/16 03:36:58;;;;;;;9.10;4.25;;;16.80;99.90;;;;;;5036770;28;20028;-69
2023/06/16 03:39:24;;;;;;;11.70;4.30;;;16.90;99.90;;;;;;5037668;28;20075;-69
2023/06/16 03:41:50;;;;;;;6.00;3.90;;;17.00;99.90;;;;;;5036783;28;20026;-69
2023/06/16 03:44:16;;;;;;;7.57;4.13;;;17.00;99.90;;;;;;5036792;28;20022;-69
2023/06/16 03:46:41;;;;;;;8.77;3.85;;;17.00;99.90;;;;;;5037660;28;20036;-69
2023/06/16 03:49:10;;;;;;;7.85;4.20;;;17.00;99.90;;;;;;5037176;28;20052;-69
2023/06/16 03:51:37;;;;;;;9.43;4.30;;;16.90;99.90;;;;;;5036866;28;20025;-69
2023/06/16 03:54:03;;;;;;;10.57;4.20;;;16.80;99.90;;;;;;5036634;28;20036;-69
2023/06/16 03:56:28;;;;;;;8.70;3.63;;;16.70;99.90;;;;;;5037498;28;20034;-69
2023/06/16 03:58:55;;;;;;;7.93;3.80;;;16.70;99.90;;;;;;5037285;28;20026;-69
2023/06/16 04:01:22;;;;;;;7.72;3.83;;;16.80;99.90;;;;;;5037169;28;20031;-69
2023/06/16 04:03:49;;;;;;;12.07;4.20;;;16.90;99.90;;;;;;5037360;28;20021;-68
2023/06/16 04:06:15;;;;;;;8.38;3.97;;;17.00;99.90;;;;;;5036478;28;20044;-69
2023/06/16 04:08:41;;;;;;;14.50;3.75;;;17.10;99.90;;;;;;5036294;28;20021;-69
2023/06/16 04:11:07;;;;;;;8.57;3.92;;;17.10;99.90;;;;;;5036724;28;20060;-69
2023/06/16 04:13:32;;;;;;;8.25;4.38;;;17.20;99.90;;;;;;5036125;28;20029;-69
2023/06/16 04:15:58;;;;;;;7.72;3.60;;;17.10;99.90;;;;;;5036624;28;20055;-69
2023/06/16 04:18:24;;;;;;;9.57;3.83;;;17.20;99.90;;;;;;5036928;28;20029;-69
2023/06/16 04:20:50;;;;;;;6.72;3.90;;;17.20;99.90;;;;;;5037070;28;20073;-68
2023/06/16 04:23:16;;;;;;;7.20;4.28;;;17.30;99.90;;;;;;5037260;28;20025;-69
2023/06/16 04:25:42;;;;;;;8.45;3.90;;;17.30;99.90;;;;;;5036169;28;20029;-69
2023/06/16 04:28:13;;;;;;;7.03;3.47;;;17.30;99.90;;;;;;5037471;28;20022;-69
2023/06/16 04:30:42;;;;;;;11.55;3.85;;;17.30;99.90;;;;;;5036218;28;20040;-69
2023/06/16 04:33:08;;;;;;;7.93;4.03;;;17.30;99.90;;;;;;5035963;28;20030;-69
2023/06/16 04:35:34;;;;;;;10.48;3.92;;;17.20;99.90;;;;;;5036050;28;20048;-69
2023/06/16 04:38:06;;;;;;;7.43;3.88;;;17.00;99.90;;;;;;5036291;28;20052;-69
2023/06/16 04:40:32;;;;;;;5.88;3.58;;;17.00;99.90;;;;;;5036474;28;20097;-69
2023/06/16 04:42:57;;;;;;;6.55;3.80;;;17.10;99.90;;;;;;5036150;28;20053;-69
2023/06/16 04:45:24;;;;;;;7.00;3.67;;;17.00;99.90;;;;;;5038249;28;20028;-69
2023/06/16 04:47:52;;;;;;;5.97;3.63;;;17.00;99.90;;;;;;5040344;28;20026;-69
2023/06/16 04:50:18;;;;;;;8.30;4.25;;;17.00;99.90;;;;;;5039949;28;20083;-69
2023/06/16 04:52:47;;;;;;;11.73;4.57;;;17.00;99.90;;;;;;5041241;28;20030;-69
2023/06/16 04:55:16;;;;;;;6.72;3.50;;;17.10;99.90;;;;;;5040386;28;20025;-69
2023/06/16 04:57:42;;;;;;;7.80;3.78;;;17.20;99.90;;;;;;5039704;28;20029;-69
2023/06/16 05:00:09;;;;;;;6.90;3.67;;;17.20;99.90;;;;;;5040823;28;20026;-69
2023/06/16 05:02:35;;;;;;;10.85;3.80;;;17.30;99.90;;;;;;5039861;28;20026;-69
2023/06/16 05:05:03;;;;;;;6.15;3.72;;;17.30;99.90;;;;;;5040616;28;20071;-69
2023/06/16 05:07:29;;;;;;;6.75;3.10;;;17.30;99.90;;;;;;5039736;28;20037;-69
2023/06/16 05:09:54;;;;;;;6.88;3.35;;;17.20;99.90;;;;;;5040572;28;20029;-69
2023/06/16 05:12:20;;;;;;;5.60;3.58;;;17.10;99.90;;;;;;5039716;28;20029;-69
2023/06/16 05:14:45;;;;;;;9.43;3.90;;;17.30;99.90;;;;;;5039889;28;20112;-69
2023/06/16 05:17:11;;;;;;;8.10;4.43;;;17.40;99.90;;;;;;5039536;28;20075;-69
2023/06/16 05:19:36;;;;;;;7.05;3.53;;;17.50;99.90;;;;;;5041263;28;20025;-69
2023/06/16 05:22:02;;;;;;;8.30;3.90;;;17.50;99.90;;;;;;5041705;28;20025;-69
2023/06/16 05:24:28;;;;;;;6.68;3.55;;;17.50;99.90;;;;;;5041487;28;20026;-69
2023/06/16 05:26:53;;;;;;;8.73;3.47;;;17.50;99.90;;;;;;5039286;28;20025;-69
2023/06/16 05:29:19;;;;;;;9.98;3.63;;;17.60;99.90;;;;;;5039146;28;20116;-69
2023/06/16 05:31:45;;;;;;;8.50;3.45;;;17.70;99.90;;;;;;5040507;28;20029;-70
2023/06/16 05:34:10;;;;;;;6.43;4.10;;;17.90;99.90;;;;;;5040375;28;20033;-69
2023/06/16 05:36:36;;;;;;;10.27;3.80;;;18.00;99.90;;;;;;5040545;28;20114;-69
2023/06/16 05:39:03;;;;;;;8.68;4.35;;;18.20;99.90;;;;;;5040164;28;20097;-69
2023/06/16 05:41:28;;;;;;;12.50;4.07;;;18.20;99.90;;;;;;5039216;28;20030;-69
2023/06/16 05:43:55;;;;;;;7.40;3.90;;;18.10;99.90;;;;;;5039071;28;20018;-69
2023/06/16 05:46:21;;;;;;;6.20;3.70;;;18.20;99.90;;;;;;5039766;28;20037;-71
2023/06/16 05:48:46;;;;;;;11.15;3.50;;;18.40;99.90;;;;;;5039206;28;20021;-73
2023/06/16 05:51:12;;;;;;;5.30;3.47;;;18.40;99.90;;;;;;5038929;28;20124;-72
2023/06/16 05:53:38;;;;;;;4.90;3.20;;;18.40;99.90;;;;;;5039357;28;20018;-71
2023/06/16 05:56:03;;;;;;;7.90;3.60;;;18.60;99.90;;;;;;5037718;28;20017;-71
2023/06/16 05:58:29;;;;;;;6.63;3.50;;;18.70;99.90;;;;;;5039112;28;20026;-70
2023/06/16 06:00:55;;;;;;;7.90;3.90;;;18.80;99.90;;;;;;5038938;28;20075;-72
2023/06/16 06:03:22;;;;;;;8.40;4.30;;;18.70;99.90;;;;;;5039063;28;20025;-71
2023/06/16 06:05:48;;;;;;;14.65;4.35;;;18.80;99.90;;;;;;5039653;28;20034;-73
2023/06/16 06:08:13;;;;;;;9.88;4.03;;;18.90;99.90;;;;;;5038623;28;20032;-72
2023/06/16 06:10:39;;;;;;;9.13;4.32;;;18.90;99.90;;;;;;5039592;28;20049;-71
2023/06/16 06:13:05;;;;;;;9.35;3.65;;;18.90;99.90;;;;;;5038629;28;20056;-72
2023/06/16 06:15:30;;;;;;;5.78;3.72;;;18.90;99.90;;;;;;5039749;28;20040;-71
2023/06/16 06:17:56;;;;;;;11.48;4.35;;;19.00;99.90;;;;;;5038653;28;20030;-70
2023/06/16 06:20:22;;;;;;;6.55;3.80;;;19.10;99.90;;;;;;5039383;28;20028;-69
2023/06/16 06:22:50;;;;;;;6.47;4.40;;;19.10;99.90;;;;;;5038689;28;20017;-70
2023/06/16 06:25:16;;;;;;;6.57;4.13;;;19.20;99.90;;;;;;5038187;28;20041;-68
2023/06/16 06:27:41;;;;;;;7.28;3.67;;;19.30;99.90;;;;;;5038257;28;20029;-68
2023/06/16 06:30:07;;;;;;;11.05;4.00;;;19.30;99.90;;;;;;5038209;28;20037;-68
2023/06/16 06:32:34;;;;;;;7.80;4.10;;;19.30;99.90;;;;;;5039132;28;20021;-67
2023/06/16 06:34:59;;;;;;;8.25;4.10;;;19.30;99.90;;;;;;5038087;28;20056;-68
2023/06/16 06:37:30;;;;;;;7.65;3.80;;;19.30;99.90;;;;;;5037884;28;20053;-68
2023/06/16 06:39:56;;;;;;;6.13;3.58;;;19.20;99.90;;;;;;5039218;28;20013;-68
2023/06/16 06:42:22;;;;;;;6.45;3.60;;;19.40;99.90;;;;;;5038288;28;20031;-68
2023/06/16 06:44:48;;;;;;;8.93;4.03;;;19.60;99.90;;;;;;5037958;28;20025;-68
2023/06/16 06:47:13;;;;;;;8.98;3.42;;;19.60;99.90;;;;;;5038166;28;20036;-68
2023/06/16 06:49:41;;;;;;;5.90;3.47;;;19.60;99.90;;;;;;5038652;28;20104;-68
2023/06/16 06:52:06;;;;;;;7.57;3.65;;;19.60;99.90;;;;;;5038668;28;20029;-68
2023/06/16 06:54:32;;;;;;;6.78;3.45;;;19.70;99.90;;;;;;5037793;28;20029;-68
2023/06/16 06:56:57;;;;;;;6.32;4.13;;;19.70;99.90;;;;;;5037643;28;20072;-69
2023/06/16 06:59:23;;;;;;;7.00;3.38;;;19.80;99.90;;;;;;5037588;28;20025;-68
2023/06/16 07:01:48;;;;;;;8.38;3.58;;;19.80;99.90;;;;;;5038748;28;20018;-67
2023/06/16 07:04:14;;;;;;;9.65;3.75;;;19.90;99.90;;;;;;5037597;28;20128;-68
2023/06/16 07:06:40;;;;;;;8.18;3.60;;;19.80;99.90;;;;;;5038826;28;20036;-68
2023/06/16 07:09:06;;;;;;;5.60;3.20;;;19.90;99.90;;;;;;5038082;28;20079;-68
2023/06/16 07:11:31;;;;;;;8.02;3.47;;;20.00;99.90;;;;;;5038482;28;20028;-68
2023/06/16 07:13:57;;;;;;;5.10;3.60;;;20.10;99.90;;;;;;5038320;28;20053;-67
2023/06/16 07:16:22;;;;;;;7.05;3.63;;;20.10;99.90;;;;;;5037645;28;20032;-68
2023/06/16 07:18:48;;;;;;;4.35;3.20;;;20.20;99.90;;;;;;5037225;28;20024;-68
2023/06/16 07:21:13;;;;;;;8.45;3.88;;;20.30;99.90;;;;;;5037387;28;20018;-68
2023/06/16 07:23:39;;;;;;;8.45;4.13;;;20.40;99.90;;;;;;5037264;28;20036;-68
2023/06/16 07:26:04;;;;;;;8.35;3.70;;;20.40;99.90;;;;;;5038305;28;20028;-68
2023/06/16 07:28:30;;;;;;;9.38;3.40;;;20.50;99.90;;;;;;5037386;28;20033;-68
2023/06/16 07:30:56;;;;;;;8.57;3.50;;;20.50;99.90;;;;;;5051934;22;20038;-66
2023/06/16 07:33:21;;;;;;;8.10;3.53;;;20.60;99.90;;;;;;5017192;28;20052;-66
2023/06/16 07:35:48;;;;;;;6.50;3.58;;;20.70;99.90;;;;;;5017200;28;20018;-66
2023/06/16 07:38:14;;;;;;;7.00;3.40;;;20.80;99.90;;;;;;5017899;28;20113;-66
2023/06/16 07:40:40;;;;;;;6.65;3.60;;;20.90;99.90;;;;;;5018052;28;20072;-66
2023/06/16 07:43:06;;;;;;;8.82;3.47;;;20.90;99.90;;;;;;5017338;28;20021;-66
2023/06/16 07:45:33;;;;;;;4.65;3.35;;;21.10;99.90;;;;;;5016918;28;20032;-66
2023/06/16 07:47:59;;;;;;;12.00;3.92;;;21.10;99.90;;;;;;5017066;28;20030;-66
2023/06/16 07:50:24;;;;;;;8.70;3.80;;;21.10;99.90;;;;;;5017360;28;20025;-66
2023/06/16 07:52:51;;;;;;;5.72;3.33;;;21.30;99.90;;;;;;5017624;28;20026;-66
2023/06/16 07:55:16;;;;;;;5.78;3.13;;;21.40;99.90;;;;;;5017773;28;20026;-66
2023/06/16 07:57:42;;;;;;;5.90;3.58;;;21.50;99.90;;;;;;5016838;28;20033;-66
2023/06/16 08:00:11;;;;;;;6.80;3.33;;;21.50;99.90;;;;;;5016630;28;20026;-66
2023/06/16 08:02:38;;;;;;;8.23;3.63;;;21.50;99.90;;;;;;5016733;28;20083;-66
2023/06/16 08:05:04;;;;;;;8.48;3.55;;;21.70;99.90;;;;;;5017621;28;20057;-66
2023/06/16 08:07:30;;;;;;;9.13;3.60;;;21.70;99.90;;;;;;5017678;28;20163;-66
2023/06/16 08:09:55;;;;;;;4.00;2.95;;;21.70;99.90;;;;;;5016704;28;20069;-66
2023/06/16 08:12:21;;;;;;;6.22;3.50;;;21.70;99.90;;;;;;5016661;28;20069;-66
2023/06/16 08:14:46;;;;;;;4.22;2.95;;;21.80;99.90;;;;;;5017325;28;20030;-66
2023/06/16 08:17:12;;;;;;;5.93;3.67;;;21.70;99.90;;;;;;5017311;28;20034;-66
2023/06/16 08:19:37;;;;;;;6.05;3.70;;;21.80;99.90;;;;;;5015843;28;20080;-66
2023/06/16 08:22:04;;;;;;;5.53;3.13;;;21.80;99.90;;;;;;5016423;28;20025;-66
2023/06/16 08:24:30;;;;;;;12.00;3.55;;;21.90;99.90;;;;;;5017583;28;20041;-66
2023/06/16 08:26:56;;;;;;;4.68;3.17;;;22.10;99.90;;;;;;5016403;28;20029;-66
2023/06/16 08:29:22;;;;;;;9.98;3.90;;;22.20;99.90;;;;;;5017204;28;20029;-66
2023/06/16 08:31:48;;;;;;;6.63;3.60;;;22.10;99.90;;;;;;5017274;28;20041;-66
2023/06/16 08:34:13;;;;;;;4.68;3.03;;;22.20;99.90;;;;;;5016418;28;20030;-66
2023/06/16 08:36:39;;;;;;;5.72;3.53;;;22.20;99.90;;;;;;5016270;28;20029;-66
2023/06/16 08:39:07;;;;;;;7.18;3.28;;;22.30;99.90;;;;;;5016367;28;20044;-66
2023/06/16 08:41:36;;;;;;;3.85;3.13;;;22.20;99.90;;;;;;5017157;28;20018;-66
2023/06/16 08:44:03;;;;;;;6.70;3.17;;;22.40;99.90;;;;;;5016583;28;20062;-66
2023/06/16 08:46:28;;;;;;;7.78;3.17;;;22.60;99.90;;;;;;5016389;28;20026;-66
2023/06/16 08:48:54;;;;;;;4.10;3.10;;;22.70;99.90;;;;;;5016196;28;20022;-66
2023/06/16 08:51:24;;;;;;;5.82;3.28;;;22.70;99.90;;;;;;5016141;28;20100;-66
2023/06/16 08:53:52;;;;;;;5.70;3.20;;;22.70;99.90;;;;;;5016303;28;20041;-66
2023/06/16 08:56:18;;;;;;;3.90;3.22;;;22.90;99.90;;;;;;5017038;28;20022;-66
2023/06/16 08:58:47;;;;;;;5.63;3.63;;;22.90;99.90;;;;;;5017024;28;20025;-66
2023/06/16 09:01:14;;;;;;;5.57;3.03;;;23.30;99.40;;;;;;5016436;28;20053;-66
2023/06/16 09:03:41;;;;;;;5.38;3.08;;;23.60;99.30;;;;;;5017095;28;20048;-66
2023/06/16 09:06:10;;;;;;;4.82;3.25;;;23.40;97.80;;;;;;5016188;28;20044;-66
2023/06/16 09:08:36;;;;;;;4.18;2.83;;;23.30;98.40;;;;;;5016302;28;20022;-66
2023/06/16 09:11:07;;;;;;;6.13;3.30;;;23.50;99.90;;;;;;5017003;28;20117;-66
2023/06/16 09:13:32;;;;;;;9.40;3.42;;;23.40;98.90;;;;;;5016137;28;20060;-66
2023/06/16 09:15:59;;;;;;;6.13;3.13;;;23.50;98.20;;;;;;5016004;28;20034;-66
2023/06/16 09:18:37;;;;;;;6.57;3.65;;;23.70;98.10;;;;;;5016050;28;20037;-66
2023/06/16 09:21:05;;;;;;;3.85;3.35;;;23.70;98.30;;;;;;5017192;28;20029;-66
2023/06/16 09:23:31;;;;;;;4.53;3.10;;;23.60;98.40;;;;;;5016137;28;20036;-66
2023/06/16 09:25:57;;;;;;;7.95;3.72;;;23.70;99.00;;;;;;5015906;28;20022;-66
2023/06/16 09:28:36;;;;;;;3.50;2.90;;;24.00;97.90;;;;;;5015812;28;20121;-66
2023/06/16 09:31:04;;;;;;;6.15;3.10;;;24.20;96.60;;;;;;5017875;28;20048;-66
2023/06/16 09:33:30;;;;;;;6.45;3.35;;;24.30;97.40;;;;;;5019371;28;20022;-66
2023/06/16 09:35:57;;;;;;;5.05;2.83;;;24.60;95.80;;;;;;5020382;28;20033;-66
2023/06/16 09:38:23;;;;;;;8.88;3.97;;;24.50;95.30;;;;;;5019352;28;20022;-66
2023/06/16 09:40:49;;;;;;;5.03;3.35;;;24.30;95.00;;;;;;5019424;28;20022;-66
2023/06/16 09:43:15;;;;;;;4.68;3.20;;;24.40;95.90;;;;;;5019638;28;20029;-66
2023/06/16 09:45:41;;;;;;;5.60;3.40;;;24.50;96.70;;;;;;5019272;28;20113;-66
2023/06/16 09:48:10;;;;;;;5.28;3.30;;;24.50;95.20;;;;;;5019253;28;20026;-66
2023/06/16 09:50:36;;;;;;;6.38;2.97;;;24.70;94.60;;;;;;5019174;28;20025;-66
2023/06/16 09:53:08;;;;;;;8.20;3.63;;;24.80;94.70;;;;;;5019394;28;20108;-66
2023/06/16 09:55:40;;;;;;;6.10;3.22;;;25.10;95.40;;;;;;5019975;28;20029;-66
2023/06/16 09:58:06;;;;;;;3.97;3.40;;;25.50;94.00;;;;;;5019022;28;20026;-66
2023/06/16 10:00:32;;;;;;;5.68;3.50;;;25.60;92.60;;;;;;5018921;28;20113;-66
2023/06/16 10:02:59;;;;;;;4.05;3.35;;;25.50;92.00;;;;;;5019025;28;20095;-66
2023/06/16 10:05:25;;;;;;;10.57;3.65;;;25.60;92.40;;;;;;5019899;28;20028;-66
2023/06/16 10:07:53;;;;;;;7.10;3.35;;;25.80;92.20;;;;;;5018937;28;20034;-66
2023/06/16 10:10:23;;;;;;;6.50;3.00;;;26.00;91.80;;;;;;5018738;28;20033;-66
2023/06/16 10:12:50;;;;;;;5.13;2.90;;;26.10;90.60;;;;;;5019691;28;20026;-66
2023/06/16 10:15:22;;;;;;;6.07;3.17;;;25.90;91.20;;;;;;5019767;28;20022;-66
2023/06/16 10:17:49;;;;;;;5.38;3.10;;;26.30;90.80;;;;;;5019132;28;20033;-66
2023/06/16 10:20:18;;;;;;;7.13;3.38;;;26.50;90.10;;;;;;5018762;28;20025;-66
2023/06/16 10:22:45;;;;;;;6.85;3.50;;;26.70;90.00;;;;;;5019749;28;20101;-66
2023/06/16 10:25:11;;;;;;;5.57;3.42;;;26.40;87.80;;;;;;5018499;28;20080;-66
2023/06/16 10:27:39;;;;;;;9.10;3.50;;;26.10;90.40;;;;;;5018449;28;20025;-67
2023/06/16 10:30:06;;;;;;;8.57;3.65;;;26.30;87.70;;;;;;5018324;28;20088;-66
2023/06/16 10:32:32;;;;;;;5.82;3.40;;;26.20;86.90;;;;;;5019096;28;20038;-66
2023/06/16 10:35:00;;;;;;;7.65;3.38;;;26.10;87.00;;;;;;5019094;28;20075;-66
2023/06/16 10:37:28;;;;;;;8.32;3.80;;;26.00;89.00;;;;;;5018366;28;20026;-66
2023/06/16 10:40:03;;;;;;;4.18;2.85;;;25.80;88.30;;;;;;5018300;28;20108;-66
2023/06/16 10:42:33;;;;;;;12.43;3.47;;;25.50;87.90;;;;;;5017673;28;20045;-66
2023/06/16 10:45:23;;;;;;;5.18;3.20;;;25.30;89.10;;;;;;5018189;28;20072;-66
2023/06/16 10:48:02;;;;;;;6.03;3.58;;;25.20;88.30;;;;;;5018888;28;20113;-67
2023/06/16 10:50:32;;;;;;;5.95;3.28;;;25.40;89.10;;;;;;5017966;28;20080;-67
2023/06/16 10:53:07;;;;;;;4.25;3.25;;;25.50;88.10;;;;;;5019225;28;20026;-67
2023/06/16 10:55:34;;;;;;;4.80;3.58;;;25.40;89.00;;;;;;5017946;28;20053;-66
2023/06/16 10:58:15;;;;;;;5.28;3.10;;;25.60;88.00;;;;;;5017797;28;20022;-66
2023/06/16 11:01:05;;;;;;;4.15;3.08;;;25.60;85.60;;;;;;5017770;28;20022;-67
2023/06/16 11:03:34;;;;;;;5.47;2.90;;;25.40;85.30;;;;;;5019114;28;20105;-66
2023/06/16 11:06:01;;;;;;;6.57;3.22;;;25.20;86.50;;;;;;5018080;28;20022;-66
2023/06/16 11:08:28;;;;;;;4.80;3.35;;;25.10;87.50;;;;;;5017846;28;20084;-66
2023/06/16 11:11:03;;;;;;;8.40;3.17;;;25.00;90.10;;;;;;5018524;28;20025;-66
2023/06/16 11:13:35;;;;;;;8.10;3.15;;;25.00;90.40;;;;;;5018423;28;20037;-66
2023/06/16 11:16:02;;;;;;;6.20;2.80;;;24.90;90.50;;;;;;5018559;28;20022;-66
2023/06/16 11:18:29;;;;;;;6.10;3.28;;;24.90;91.90;;;;;;5018247;28;20046;-66
2023/06/16 11:20:59;;;;;;;3.53;2.55;;;25.10;91.20;;;;;;5017710;28;20033;-66
2023/06/16 11:23:25;;;;;;;3.30;2.13;;;24.90;84.60;;;;;;5018620;28;20045;-66
2023/06/16 11:25:51;;;;;;;3.05;2.00;;;24.90;84.90;;;;;;5017272;28;20069;-66
2023/06/16 11:28:21;;;;;;;2.72;1.83;;;24.90;83.80;;;;;;5017246;28;20077;-66
2023/06/16 11:30:47;;;;;;;5.10;2.40;;;24.90;82.40;;;;;;5017309;28;20053;-66
2023/06/16 11:33:16;;;;;;;6.88;2.72;;;24.90;83.30;;;;;;5017427;28;20109;-66
2023/06/16 11:35:42;;;;;;;2.70;2.22;;;25.00;83.00;;;;;;5017898;28;20030;-66
2023/06/16 11:38:08;;;;;;;3.95;2.90;;;25.30;84.60;;;;;;5017508;28;20030;-66
2023/06/16 11:40:35;;;;;;;4.78;2.58;;;25.50;82.10;;;;;;5017281;28;20113;-66
2023/06/16 11:43:02;;;;;;;6.75;3.20;;;25.50;83.10;;;;;;5017083;28;20025;-66
2023/06/16 11:45:33;;;;;;;4.45;2.60;;;25.70;83.40;;;;;;5017034;28;20033;-66
2023/06/16 11:48:00;;;;;;;3.38;3.08;;;25.90;84.20;;;;;;5017056;28;20026;-67
2023/06/16 11:50:26;;;;;;;4.60;3.17;;;26.50;82.10;;;;;;5016807;28;20025;-67
2023/06/16 11:52:53;;;;;;;5.70;3.08;;;27.30;81.80;;;;;;5016895;28;20095;-66
2023/06/16 11:55:19;;;;;;;7.88;3.63;;;27.60;82.50;;;;;;5016891;28;20029;-66
2023/06/16 11:57:45;;;;;;;3.80;3.30;;;27.50;83.60;;;;;;5016692;28;20026;-66
2023/06/16 12:00:12;;;;;;;4.65;3.35;;;27.60;83.00;;;;;;5017116;28;20018;-66
2023/06/16 12:02:38;;;;;;;6.32;3.15;;;27.40;81.90;;;;;;5016712;28;20022;-67
2023/06/16 12:05:27;;;;;;;4.80;3.63;;;26.90;80.90;;;;;;5018135;28;20071;-67
2023/06/16 12:07:53;;;;;;;4.97;3.00;;;26.50;81.90;;;;;;5016609;28;20026;-67
2023/06/16 12:10:18;;;;;;;4.95;3.17;;;26.80;85.90;;;;;;5016453;28;20026;-68
2023/06/16 12:12:45;;;;;;;3.97;3.10;;;26.80;82.60;;;;;;5017588;28;20033;-68
2023/06/16 12:15:15;;;;;;;5.22;3.30;;;26.50;81.10;;;;;;5016639;28;20137;-68
2023/06/16 12:17:41;;;;;;;7.50;2.88;;;26.30;79.80;;;;;;5016436;28;20172;-68
2023/06/16 12:20:12;;;;;;;5.13;3.17;;;26.20;82.40;;;;;;5017031;28;20077;-68
2023/06/16 12:22:41;;;;;;;;;;;26.10;80.70;;;;;;5016898;28;20118;-68
2023/06/16 12:25:14;;;;;;;7.65;3.30;;;25.80;80.60;;;;;;5017418;28;19906;-67
2023/06/16 12:27:44;;;;;;;5.70;3.30;;;25.60;82.00;;;;;;5016520;28;20168;-67
2023/06/16 12:30:11;;;;;;;5.10;3.20;;;25.40;80.20;;;;;;5016334;28;20052;-67
2023/06/16 12:32:36;;;;;;;6.75;3.08;;;25.30;80.10;;;;;;5016196;28;20033;-67
2023/06/16 12:35:02;;;;;;;4.38;3.03;;;25.40;80.90;;;;;;5016476;28;20034;-67
2023/06/16 12:37:29;;;;;;;3.95;3.00;;;26.00;79.30;;;;;;5016386;28;20029;-67
2023/06/16 12:40:04;;;;;;;8.07;3.50;;;26.30;81.20;;;;;;5017095;28;20026;-67
2023/06/16 12:42:30;;;;;;;5.18;3.13;;;26.80;82.10;;;;;;5017017;28;20026;-68
2023/06/16 12:44:59;;;;;;;4.90;3.40;;;27.10;79.20;;;;;;5017138;28;20018;-67
2023/06/16 12:47:26;;;;;;;3.90;3.00;;;27.60;77.90;;;;;;5017186;28;20046;-68